Aérodrome :
LOGIN :

S'inscrire | Disclaimer

   EN    FR    IT 

 










Légende :    VFR   VFR Marginal   IFR   IFR Intensif   IFR Très Intensif
Visi : 
Plafond : 
>= 8 km
>= 3000ft
5 à 8 km
1000 à 3000 ft
1500m à 5 km
500 à 1000 ft
800 à 1500m
200 à 500 ft
< 800m
< 200 ft
Symboles :   Orages  Brouillard  Fortes neiges  Fortes précipitations  Vent > 20 kt
SIGMETs :   Divers  Orages  Givrage  Turbulence  Onde Orograph.  Cendres Volcan.






- Altitude de l'aérodrome : 220 ft
- Code IATA : CWL


EGFF - Cardiff Rhoose

DERNIER METAR :
  • 041720Z AUTO 29013KT 9999 FEW020 SCT026 BKN034 06/02 Q0979

METARs EXPIRÉS :
  • 041650Z AUTO 28014KT 9999 SCT023 BKN034 06/01 Q0979
  • 041620Z AUTO 28015KT 9999 BKN024 06/01 Q0979
  • 041550Z AUTO 28014KT 9999 BKN028 BKN032 06/01 Q0979
  • 041520Z AUTO 29016KT 9999 BKN029 06/00 Q0979
  • 041450Z AUTO 29013KT 9999 FEW032 SCT041 06/02 Q0979

TAF TAF EGFF
Valide du 04 à 18h jusqu'au 05 à 18h UTC


041654Z 0418/0518 27012KT 9999 SCT025
TEMPO 0418/0512 6000 SHRA RA BKN012
BECMG 0421/0424 20012KT
PROB30
TEMPO 0421/0510 4000 +RA BKN008
BECMG 0500/0503 VRB03KT
BECMG 0506/0509 06012KT
ATIS : +44 1446 729 319



MET'MAP, la Météo Aéronautique d'un coup d'oeil ! - Copyright ORBIFLY Décembre 2007 - Disclaimer

ORBIFLY MET'MAP TEAM :

Programmation & Développement : Alexandra Zaïnal
Sur une idée originale de : Baudouin d'Aumeries
Assistance à la programmation : Marc-Olivier Méhu
Soutien technique & logistique : Manuel Goepfert

Contact : metmap@orbifly.com




SOURCES & CREDITS :

   NOAA